createdAt,value
2022-11-28T00:01:45.178Z,6.78
2022-11-28T00:04:13.817Z,5.57
2022-11-28T00:06:50.949Z,7.00
2022-11-28T00:09:20.545Z,5.68
2022-11-28T00:11:49.878Z,5.47
2022-11-28T00:14:18.974Z,6.60
2022-11-28T00:16:47.913Z,6.47
2022-11-28T00:19:15.941Z,5.65
2022-11-28T00:21:43.820Z,6.85
2022-11-28T00:24:11.698Z,5.65
2022-11-28T00:26:41.392Z,5.57
2022-11-28T00:29:10.402Z,6.00
2022-11-28T00:31:42.663Z,5.97
2022-11-28T00:34:13.515Z,6.18
2022-11-28T00:36:43.287Z,6.00
2022-11-28T00:39:11.667Z,6.43
2022-11-28T00:41:39.633Z,5.85
2022-11-28T00:44:07.720Z,5.78
2022-11-28T00:46:35.668Z,6.55
2022-11-28T00:49:03.569Z,6.25
2022-11-28T00:51:33.120Z,5.85
2022-11-28T00:54:02.730Z,5.60
2022-11-28T00:56:34.878Z,6.45
2022-11-28T00:59:03.113Z,4.68
2022-11-28T01:01:43.885Z,7.10
2022-11-28T01:04:15.538Z,4.85
2022-11-28T01:06:46.191Z,5.47
2022-11-28T01:09:20.367Z,5.70
2022-11-28T01:11:50.832Z,5.87
2022-11-28T01:14:23.933Z,5.55
2022-11-28T01:16:51.876Z,5.78
2022-11-28T01:19:21.330Z,6.35
2022-11-28T01:21:49.460Z,6.10
2022-11-28T01:24:17.447Z,6.55
2022-11-28T01:26:45.284Z,6.05
2022-11-28T01:29:13.291Z,6.70
2022-11-28T01:31:41.281Z,7.05
2022-11-28T01:34:09.690Z,6.80
2022-11-28T01:36:37.551Z,6.32
2022-11-28T01:39:06.128Z,7.00
2022-11-28T01:41:34.033Z,6.65
2022-11-28T01:44:13.855Z,6.22
2022-11-28T01:46:42.566Z,5.97
2022-11-28T01:49:15.937Z,7.72
2022-11-28T01:51:52.627Z,6.07
2022-11-28T01:54:22.798Z,7.57
2022-11-28T01:57:00.643Z,7.15
2022-11-28T01:59:34.172Z,7.20
2022-11-28T02:02:08.501Z,7.00
2022-11-28T02:04:36.414Z,6.03
2022-11-28T02:07:04.274Z,7.43
2022-11-28T02:09:32.061Z,7.38
2022-11-28T02:12:32.388Z,5.72
2022-11-28T02:15:19.808Z,7.55
2022-11-28T02:18:27.609Z,7.45
2022-11-28T02:21:18.374Z,7.68
2022-11-28T02:24:07.283Z,7.63
2022-11-28T02:26:50.408Z,6.95
2022-11-28T02:29:51.245Z,7.00
2022-11-28T02:33:06.937Z,7.38
2022-11-28T02:35:49.576Z,7.15
2022-11-28T02:38:24.421Z,5.47
2022-11-28T02:41:01.553Z,6.57
2022-11-28T02:43:48.066Z,7.22
2022-11-28T02:46:32.262Z,7.35
2022-11-28T02:49:06.715Z,6.97
2022-11-28T02:51:46.861Z,6.13
2022-11-28T02:54:18.188Z,5.95
2022-11-28T02:56:50.531Z,6.47
2022-11-28T02:59:36.782Z,6.22
2022-11-28T03:02:13.493Z,6.30
2022-11-28T03:05:14.755Z,5.75
2022-11-28T03:08:04.222Z,5.95
2022-11-28T03:10:59.619Z,6.25
2022-11-28T03:13:49.543Z,6.38
2022-11-28T03:16:35.360Z,5.57
2022-11-28T03:19:19.752Z,4.63
2022-11-28T03:22:13.816Z,6.30
2022-11-28T03:24:46.570Z,5.55
2022-11-28T03:27:18.172Z,5.47
2022-11-28T03:30:01.213Z,5.03
2022-11-28T03:32:32.801Z,5.85
2022-11-28T03:35:09.923Z,5.57
2022-11-28T03:37:49.426Z,6.40
2022-11-28T03:40:22.526Z,5.65
2022-11-28T03:43:04.611Z,6.10
2022-11-28T03:45:40.483Z,6.22
2022-11-28T03:48:41.003Z,5.50
2022-11-28T03:51:36.841Z,6.57
2022-11-28T03:54:08.287Z,5.47
2022-11-28T03:56:53.953Z,6.00
2022-11-28T03:59:34.513Z,5.82
2022-11-28T04:02:22.521Z,5.47
2022-11-28T04:04:57.933Z,5.72
2022-11-28T04:07:42.926Z,5.65
2022-11-28T04:10:19.972Z,2.72
2022-11-28T04:13:03.126Z,5.05
2022-11-28T04:15:46.129Z,5.18
2022-11-28T04:18:38.213Z,5.50
2022-11-28T04:21:29.467Z,5.90
2022-11-28T04:24:07.019Z,5.70
2022-11-28T04:26:42.104Z,4.45
2022-11-28T04:29:14.170Z,5.90
2022-11-28T04:31:44.518Z,5.38
2022-11-28T04:34:17.676Z,5.30
2022-11-28T04:36:46.542Z,5.07
2022-11-28T04:39:18.967Z,5.45
2022-11-28T04:41:57.401Z,4.80
2022-11-28T04:44:47.281Z,5.57
2022-11-28T04:47:15.753Z,5.20
2022-11-28T04:49:43.667Z,5.38
2022-11-28T04:52:29.452Z,5.82
2022-11-28T04:55:11.452Z,6.18
2022-11-28T04:57:57.594Z,5.60
2022-11-28T05:00:27.284Z,6.60
2022-11-28T05:02:56.507Z,6.70
2022-11-28T05:05:28.344Z,6.10
2022-11-28T05:07:57.275Z,6.05
2022-11-28T05:10:25.071Z,7.18
2022-11-28T05:12:53.343Z,6.45
2022-11-28T05:15:21.599Z,6.35
2022-11-28T05:17:49.602Z,6.13
2022-11-28T05:20:17.385Z,5.72
2022-11-28T05:22:45.153Z,5.72
2022-11-28T05:25:13.025Z,6.47
2022-11-28T05:27:40.844Z,6.53
2022-11-28T05:30:09.999Z,6.07
2022-11-28T05:32:37.922Z,5.55
2022-11-28T05:35:06.402Z,5.93
2022-11-28T05:37:36.525Z,5.47
2022-11-28T05:40:06.868Z,5.22
2022-11-28T05:42:39.316Z,6.00
2022-11-28T05:45:07.973Z,5.05
2022-11-28T05:47:35.723Z,5.15
2022-11-28T05:50:03.640Z,5.78
2022-11-28T05:52:32.430Z,5.13
2022-11-28T05:55:01.417Z,5.05
2022-11-28T05:57:32.092Z,4.22
2022-11-28T05:59:59.929Z,5.05
2022-11-28T06:02:27.836Z,5.25
2022-11-28T06:04:55.716Z,5.53
2022-11-28T06:07:23.734Z,5.40
2022-11-28T06:09:51.660Z,4.90
2022-11-28T06:12:19.529Z,4.75
2022-11-28T06:14:47.391Z,5.10
2022-11-28T06:17:15.173Z,5.15
2022-11-28T06:19:43.278Z,4.43
2022-11-28T06:22:11.244Z,4.57
2022-11-28T06:24:39.145Z,4.43
2022-11-28T06:27:06.975Z,4.72
2022-11-28T06:29:35.426Z,3.90
2022-11-28T06:32:03.930Z,3.75
2022-11-28T06:34:32.624Z,3.75
2022-11-28T06:37:00.632Z,4.00
2022-11-28T06:39:28.532Z,3.65
2022-11-28T06:41:56.358Z,4.10
2022-11-28T06:44:24.182Z,3.75
2022-11-28T06:46:52.033Z,3.85
2022-11-28T06:49:19.879Z,3.53
2022-11-28T06:51:47.667Z,4.03
2022-11-28T06:54:15.547Z,4.00
2022-11-28T06:56:43.498Z,3.22
2022-11-28T06:59:12.972Z,3.47
2022-11-28T07:01:40.780Z,3.88
2022-11-28T07:04:09.075Z,4.00
2022-11-28T07:06:39.553Z,3.80
2022-11-28T07:09:07.302Z,3.53
2022-11-28T07:11:35.034Z,4.00
2022-11-28T07:14:03.140Z,4.05
2022-11-28T07:16:34.388Z,3.38
2022-11-28T07:19:02.309Z,3.47
2022-11-28T07:21:30.884Z,3.90
2022-11-28T07:23:59.970Z,3.80
2022-11-28T07:26:27.758Z,4.22
2022-11-28T07:28:58.163Z,4.18
2022-11-28T07:31:31.491Z,4.43
2022-11-28T07:34:03.099Z,4.50
2022-11-28T07:36:31.636Z,4.65
2022-11-28T07:39:04.725Z,4.60
2022-11-28T07:41:32.513Z,3.95
2022-11-28T07:44:01.920Z,4.50
2022-11-28T07:46:31.340Z,4.35
2022-11-28T07:48:59.647Z,4.80
2022-11-28T07:51:31.225Z,4.70
2022-11-28T07:54:00.037Z,4.65
2022-11-28T07:56:50.070Z,4.63
2022-11-28T07:59:18.531Z,4.82
2022-11-28T08:01:49.286Z,5.10
2022-11-28T08:04:17.211Z,5.07
2022-11-28T08:06:45.017Z,4.70
2022-11-28T08:09:13.210Z,5.25
2022-11-28T08:11:41.669Z,5.25
2022-11-28T08:14:09.784Z,5.50
2022-11-28T08:16:41.251Z,6.15
2022-11-28T08:19:09.701Z,5.75
2022-11-28T08:21:38.443Z,5.68
2022-11-28T08:24:08.186Z,6.07
2022-11-28T08:26:37.516Z,6.32
2022-11-28T08:29:05.670Z,5.75
2022-11-28T08:31:36.442Z,6.63
2022-11-28T08:34:07.155Z,6.50
2022-11-28T08:36:35.441Z,6.18
2022-11-28T08:41:57.134Z,6.25
2022-11-28T08:44:26.689Z,5.85
2022-11-28T08:46:55.783Z,6.18
2022-11-28T08:49:23.671Z,6.28
2022-11-28T08:51:51.876Z,5.88
2022-11-28T08:54:20.871Z,6.30
2022-11-28T08:56:49.068Z,6.18
2022-11-28T08:59:17.070Z,6.30
2022-11-28T09:01:45.071Z,6.30
2022-11-28T09:04:13.156Z,6.18
2022-11-28T09:06:41.467Z,6.05
2022-11-28T09:09:09.963Z,6.05
2022-11-28T09:11:38.344Z,5.72
2022-11-28T09:14:06.573Z,6.10
2022-11-28T09:16:34.523Z,5.47
2022-11-28T09:19:02.420Z,5.70
2022-11-28T09:21:30.312Z,5.88
2022-11-28T09:23:58.174Z,5.50
2022-11-28T09:26:26.089Z,5.20
2022-11-28T09:28:54.311Z,5.28
2022-11-28T09:31:22.710Z,5.22
2022-11-28T09:33:50.737Z,5.70
2022-11-28T09:36:23.313Z,5.53
2022-11-28T09:38:51.604Z,5.22
2022-11-28T09:41:28.536Z,5.60
2022-11-28T09:44:12.332Z,5.35
2022-11-28T09:46:41.996Z,6.35
2022-11-28T09:49:34.003Z,5.40
2022-11-28T09:52:38.503Z,5.18
2022-11-28T09:55:35.143Z,5.72
2022-11-28T09:58:19.341Z,5.32
2022-11-28T10:01:24.480Z,4.95
2022-11-28T10:04:17.463Z,5.22
2022-11-28T10:06:57.085Z,5.32
2022-11-28T10:09:44.716Z,4.97
2022-11-28T10:12:18.532Z,5.30
2022-11-28T10:15:08.739Z,5.20
2022-11-28T10:17:58.660Z,5.20
2022-11-28T10:20:31.076Z,5.40
2022-11-28T10:23:01.796Z,8.10
2022-11-28T10:25:36.899Z,5.35
2022-11-28T10:28:06.901Z,4.78
2022-11-28T10:30:41.051Z,4.80
2022-11-28T10:33:24.836Z,4.90
2022-11-28T10:36:00.547Z,5.07
2022-11-28T10:38:29.970Z,4.35
2022-11-28T10:41:31.067Z,4.30
2022-11-28T10:44:21.609Z,4.45
2022-11-28T10:47:19.758Z,4.70
2022-11-28T10:50:00.502Z,4.25
2022-11-28T10:52:44.127Z,4.78
2022-11-28T10:55:41.730Z,4.45
2022-11-28T10:58:27.533Z,3.92
2022-11-28T11:01:00.408Z,4.07
2022-11-28T11:03:32.683Z,4.07
2022-11-28T11:06:01.072Z,4.00
2022-11-28T11:08:34.819Z,3.72
2022-11-28T11:11:24.323Z,4.28
2022-11-28T11:14:08.050Z,4.70
2022-11-28T11:16:54.401Z,4.70
2022-11-28T11:19:26.894Z,4.85
2022-11-28T11:22:24.782Z,4.55
2022-11-28T11:25:20.199Z,5.00
2022-11-28T11:27:51.247Z,5.07
2022-11-28T11:30:40.163Z,5.60
2022-11-28T11:33:15.272Z,5.82
2022-11-28T11:35:47.609Z,5.57
2022-11-28T11:38:21.365Z,6.28
2022-11-28T11:40:50.687Z,6.13
2022-11-28T11:43:33.434Z,6.07
2022-11-28T11:46:13.004Z,6.05
2022-11-28T11:48:46.510Z,6.22
2022-11-28T11:51:27.594Z,6.90
2022-11-28T11:54:14.496Z,6.72
2022-11-28T11:56:46.650Z,7.00
2022-11-28T11:59:33.994Z,7.03
2022-11-28T12:02:08.588Z,7.65
2022-11-28T12:04:53.922Z,7.93
2022-11-28T12:07:47.218Z,7.18
2022-11-28T12:10:20.585Z,7.80
2022-11-28T12:12:48.419Z,8.27
2022-11-28T12:15:21.596Z,7.88
2022-11-28T12:18:15.383Z,8.55
2022-11-28T12:20:47.445Z,8.60
2022-11-28T12:23:41.398Z,8.60
2022-11-28T12:26:09.158Z,9.63
2022-11-28T12:29:13.117Z,9.05
2022-11-28T12:32:03.439Z,9.65
2022-11-28T12:34:49.769Z,10.07
2022-11-28T12:38:09.779Z,8.82
2022-11-28T12:41:15.251Z,10.50
2022-11-28T12:44:00.305Z,9.57
2022-11-28T12:46:57.057Z,10.15
2022-11-28T12:49:54.109Z,10.38
2022-11-28T12:52:40.847Z,9.95
2022-11-28T12:55:33.669Z,10.50
2022-11-28T12:58:21.823Z,10.40
2022-11-28T13:01:17.774Z,10.30
2022-11-28T13:03:56.133Z,9.52
2022-11-28T13:06:42.633Z,10.88
2022-11-28T13:09:57.789Z,10.73
2022-11-28T13:12:34.581Z,9.45
2022-11-28T13:15:16.291Z,10.85
2022-11-28T13:18:22.965Z,10.98
2022-11-28T13:21:07.103Z,11.20
2022-11-28T13:24:02.255Z,10.25
2022-11-28T13:27:05.556Z,10.65
2022-11-28T13:30:05.518Z,11.18
2022-11-28T13:32:45.680Z,11.48
2022-11-28T13:35:16.462Z,11.25
2022-11-28T13:41:28.742Z,11.20
2022-11-28T13:44:08.586Z,10.85
2022-11-28T13:46:36.536Z,10.77
2022-11-28T13:49:27.469Z,10.30
2022-11-28T13:52:17.240Z,10.63
2022-11-28T13:54:52.725Z,10.52
2022-11-28T13:57:29.682Z,11.15
2022-11-28T14:00:01.757Z,10.27
2022-11-28T14:02:47.549Z,10.43
2022-11-28T14:05:35.678Z,10.07
2022-11-28T14:08:04.871Z,10.80
2022-11-28T14:10:49.557Z,10.15
2022-11-28T14:13:39.122Z,10.35
2022-11-28T14:16:18.707Z,11.05
2022-11-28T14:19:16.774Z,10.93
2022-11-28T14:21:53.265Z,10.43
2022-11-28T14:24:39.024Z,10.90
2022-11-28T14:27:14.495Z,10.60
2022-11-28T14:29:47.195Z,10.02
2022-11-28T14:32:42.591Z,10.45
2022-11-28T14:35:49.918Z,9.82
2022-11-28T14:38:31.362Z,10.18
2022-11-28T14:41:04.587Z,10.82
2022-11-28T14:43:44.617Z,10.63
2022-11-28T14:46:24.271Z,10.98
2022-11-28T14:49:00.380Z,10.55
2022-11-28T14:51:49.577Z,10.18
2022-11-28T14:54:26.803Z,10.35
2022-11-28T14:56:59.784Z,11.02
2022-11-28T14:59:37.392Z,10.95
2022-11-28T15:02:25.733Z,11.05
2022-11-28T15:05:10.290Z,11.52
2022-11-28T15:07:38.802Z,10.70
2022-11-28T15:10:16.667Z,11.90
2022-11-28T15:13:19.119Z,11.73
2022-11-28T15:15:51.599Z,12.52
2022-11-28T15:18:21.285Z,11.88
2022-11-28T15:20:58.723Z,13.45
2022-11-28T15:23:31.740Z,13.07
2022-11-28T15:26:01.208Z,13.43
2022-11-28T15:28:32.484Z,14.68
2022-11-28T15:31:03.957Z,13.68
2022-11-28T15:33:33.705Z,13.48
2022-11-28T15:36:10.579Z,14.00
2022-11-28T15:38:41.389Z,13.95
2022-11-28T15:41:09.836Z,15.73
2022-11-28T15:43:42.244Z,14.48
2022-11-28T15:46:20.609Z,15.15
2022-11-28T15:48:50.697Z,14.60
2022-11-28T15:51:35.649Z,15.55
2022-11-28T15:54:24.086Z,14.90
2022-11-28T15:56:59.668Z,15.38
2022-11-28T15:59:29.085Z,15.25
2022-11-28T16:02:04.469Z,15.10
2022-11-28T16:04:32.735Z,15.82
2022-11-28T16:07:02.034Z,16.15
2022-11-28T16:09:35.354Z,16.05
2022-11-28T16:12:04.903Z,16.27
2022-11-28T16:14:36.308Z,15.43
2022-11-28T16:17:10.014Z,15.52
2022-11-28T16:19:38.830Z,16.17
2022-11-28T16:22:09.911Z,16.80
2022-11-28T16:24:47.757Z,17.65
2022-11-28T16:27:37.790Z,16.77
2022-11-28T16:30:24.153Z,17.20
2022-11-28T16:32:53.955Z,17.63
2022-11-28T16:35:40.676Z,18.08
2022-11-28T16:38:23.968Z,18.30
2022-11-28T16:41:02.119Z,18.90
2022-11-28T16:43:40.844Z,20.60
2022-11-28T16:46:20.251Z,20.85
2022-11-28T16:48:53.602Z,22.00
2022-11-28T16:51:23.966Z,21.10
2022-11-28T16:53:58.893Z,19.98
2022-11-28T16:56:34.537Z,18.60
2022-11-28T16:59:18.625Z,19.75
2022-11-28T17:01:53.950Z,19.77
2022-11-28T17:04:30.802Z,19.98
2022-11-28T17:07:05.849Z,21.77
2022-11-28T17:09:34.223Z,20.48
2022-11-28T17:12:11.706Z,21.48
2022-11-28T17:14:40.269Z,20.90
2022-11-28T17:17:14.724Z,21.08
2022-11-28T17:19:44.185Z,22.33
2022-11-28T17:22:18.431Z,22.60
2022-11-28T17:24:47.840Z,23.45
2022-11-28T17:27:16.288Z,23.10
2022-11-28T17:29:44.505Z,22.95
2022-11-28T17:32:14.551Z,22.25
2022-11-28T17:34:48.590Z,21.88
2022-11-28T17:37:16.665Z,23.23
2022-11-28T17:40:04.560Z,21.52
2022-11-28T17:42:32.905Z,23.40
2022-11-28T17:45:00.685Z,22.55
2022-11-28T17:47:28.586Z,22.13
2022-11-28T17:49:56.613Z,21.75
2022-11-28T17:52:30.217Z,21.70
2022-11-28T17:55:06.868Z,21.67
2022-11-28T17:57:36.338Z,22.05
2022-11-28T18:00:06.904Z,22.20
2022-11-28T18:02:42.054Z,22.35
2022-11-28T18:05:10.751Z,21.80
2022-11-28T18:07:40.239Z,21.60
2022-11-28T18:10:12.678Z,22.48
2022-11-28T18:12:40.756Z,23.08
2022-11-28T18:15:10.551Z,21.73
2022-11-28T18:17:39.544Z,23.73
2022-11-28T18:20:08.644Z,24.52
2022-11-28T18:22:36.937Z,23.58
2022-11-28T18:25:05.824Z,23.48
2022-11-28T18:27:34.299Z,23.10
2022-11-28T18:30:02.241Z,23.30
2022-11-28T18:32:30.694Z,23.63
2022-11-28T18:34:58.562Z,24.58
2022-11-28T18:37:28.786Z,23.08
2022-11-28T18:39:56.831Z,22.17
2022-11-28T18:42:24.697Z,21.98
2022-11-28T18:44:52.700Z,22.58
2022-11-28T18:47:20.555Z,22.98
2022-11-28T18:49:48.980Z,22.45
2022-11-28T18:52:17.395Z,23.38
2022-11-28T18:54:46.027Z,24.05
2022-11-28T18:57:14.516Z,22.02
2022-11-28T18:59:49.766Z,22.45
2022-11-28T19:02:21.148Z,22.63
2022-11-28T19:04:49.190Z,23.50
2022-11-28T19:07:17.356Z,23.38
2022-11-28T19:09:45.495Z,22.23
2022-11-28T19:12:14.301Z,21.90
2022-11-28T19:14:42.320Z,23.05
2022-11-28T19:17:12.161Z,24.05
2022-11-28T19:19:41.248Z,22.42
2022-11-28T19:22:09.560Z,21.92
2022-11-28T19:24:38.353Z,23.02
2022-11-28T19:27:10.953Z,23.73
2022-11-28T19:29:44.232Z,23.73
2022-11-28T19:32:12.688Z,24.00
2022-11-28T19:34:40.507Z,25.17
2022-11-28T19:37:08.558Z,26.15
2022-11-28T19:39:37.124Z,26.52
2022-11-28T19:42:05.497Z,26.20
2022-11-28T19:44:33.487Z,23.85
2022-11-28T19:47:02.205Z,26.70
2022-11-28T19:49:30.355Z,27.15
2022-11-28T19:51:58.436Z,24.15
2022-11-28T19:54:27.122Z,34.28
2022-11-28T19:56:56.771Z,32.30
2022-11-28T19:59:25.072Z,29.65
2022-11-28T20:01:53.876Z,29.45
2022-11-28T20:04:23.454Z,31.40
2022-11-28T20:06:51.599Z,36.90
2022-11-28T20:09:19.537Z,30.38
2022-11-28T20:11:48.570Z,32.15
2022-11-28T20:14:18.709Z,32.45
2022-11-28T20:16:47.235Z,29.85
2022-11-28T20:19:17.912Z,28.45
2022-11-28T20:21:46.624Z,27.55
2022-11-28T20:24:15.694Z,26.23
2022-11-28T20:26:45.149Z,25.90
2022-11-28T20:29:15.989Z,26.08
2022-11-28T20:31:45.843Z,25.85
2022-11-28T20:34:17.733Z,26.35
2022-11-28T20:36:50.242Z,26.65
2022-11-28T20:39:18.559Z,25.00
2022-11-28T20:41:46.534Z,27.48
2022-11-28T20:44:21.734Z,26.55
2022-11-28T20:46:49.961Z,26.00
2022-11-28T20:49:18.679Z,26.35
2022-11-28T20:51:52.682Z,26.58
2022-11-28T20:54:20.820Z,26.27
2022-11-28T20:59:36.744Z,25.63
2022-11-28T21:02:04.912Z,25.08
2022-11-28T21:04:32.920Z,24.35
2022-11-28T21:07:00.805Z,25.27
2022-11-28T21:09:28.747Z,22.25
2022-11-28T21:11:59.196Z,22.90
2022-11-28T21:14:28.761Z,23.55
2022-11-28T21:16:57.506Z,20.95
2022-11-28T21:19:25.536Z,21.10
2022-11-28T21:21:53.529Z,20.48
2022-11-28T21:24:21.455Z,20.65
2022-11-28T21:26:53.380Z,19.92
2022-11-28T21:29:23.730Z,20.17
2022-11-28T21:31:51.859Z,18.75
2022-11-28T21:34:19.904Z,20.55
2022-11-28T21:36:47.790Z,20.48
2022-11-28T21:39:19.857Z,18.30
2022-11-28T21:41:48.089Z,20.25
2022-11-28T21:44:16.331Z,20.25
2022-11-28T21:46:44.360Z,19.38
2022-11-28T21:49:13.396Z,21.55
2022-11-28T21:51:41.556Z,20.73
2022-11-28T21:54:11.530Z,20.63
2022-11-28T21:56:39.473Z,19.80
2022-11-28T21:59:10.439Z,19.65
2022-11-28T22:01:38.996Z,17.92
2022-11-28T22:04:07.411Z,18.65
2022-11-28T22:06:35.405Z,19.25
2022-11-28T22:09:09.097Z,17.33
2022-11-28T22:11:39.503Z,17.67
2022-11-28T22:14:07.452Z,18.23
2022-11-28T22:16:35.336Z,17.92
2022-11-28T22:19:04.139Z,16.85
2022-11-28T22:24:21.233Z,16.20
2022-11-28T22:26:49.829Z,17.80
2022-11-28T22:29:18.831Z,16.30
2022-11-28T22:31:47.131Z,16.67
2022-11-28T22:34:15.253Z,15.35
2022-11-28T22:36:43.194Z,17.52
2022-11-28T22:39:11.676Z,15.32
2022-11-28T22:41:39.790Z,16.67
2022-11-28T22:44:07.721Z,16.80
2022-11-28T22:46:35.586Z,17.48
2022-11-28T22:49:04.631Z,16.65
2022-11-28T22:51:33.399Z,17.55
2022-11-28T22:54:03.307Z,16.17
2022-11-28T22:56:33.772Z,16.90
2022-11-28T22:59:04.828Z,16.10
2022-11-28T23:01:34.635Z,16.65
2022-11-28T23:04:02.679Z,16.90
2022-11-28T23:06:33.271Z,16.55
2022-11-28T23:09:04.692Z,15.85
2022-11-28T23:11:34.563Z,16.42
2022-11-28T23:14:03.269Z,16.25
2022-11-28T23:16:37.474Z,15.60
2022-11-28T23:19:16.366Z,13.88
2022-11-28T23:21:47.231Z,15.65
2022-11-28T23:24:17.764Z,13.88
2022-11-28T23:26:47.615Z,14.82
2022-11-28T23:29:17.371Z,15.23
2022-11-28T23:31:47.073Z,15.35
2022-11-28T23:34:15.798Z,15.43
2022-11-28T23:36:46.561Z,14.43
2022-11-28T23:39:17.314Z,14.68
2022-11-28T23:41:45.418Z,14.45
2022-11-28T23:44:14.339Z,15.20
2022-11-28T23:46:42.959Z,15.65
2022-11-28T23:49:11.577Z,13.23
2022-11-28T23:51:40.610Z,14.52
2022-11-28T23:54:09.688Z,14.77
2022-11-28T23:56:38.881Z,15.00
2022-11-28T23:59:08.582Z,15.93
